createdAt,value
2016-07-29T00:00:44.200Z,99.99
2016-07-29T00:02:43.468Z,99.99
2016-07-29T00:03:44.182Z,99.99
2016-07-29T00:04:43.442Z,99.99
2016-07-29T00:05:44.146Z,99.99
2016-07-29T00:06:44.120Z,99.99
2016-07-29T00:07:43.397Z,99.99
2016-07-29T00:08:44.107Z,99.99
2016-07-29T00:09:43.376Z,99.99
2016-07-29T00:10:44.076Z,99.99
2016-07-29T00:11:44.066Z,99.99
2016-07-29T00:12:43.334Z,99.99
2016-07-29T00:13:44.048Z,99.99
2016-07-29T00:14:44.034Z,99.99
2016-07-29T00:15:44.017Z,99.99
2016-07-29T00:16:43.291Z,99.99
2016-07-29T00:17:44.020Z,99.99
2016-07-29T00:18:43.980Z,99.99
2016-07-29T00:19:43.269Z,99.99
2016-07-29T00:20:43.959Z,99.99
2016-07-29T00:21:43.951Z,99.99
2016-07-29T00:22:43.936Z,99.99
2016-07-29T00:23:43.220Z,99.99
2016-07-29T00:24:43.917Z,99.99
2016-07-29T00:25:43.198Z,99.99
2016-07-29T00:26:43.896Z,99.99
2016-07-29T00:27:43.900Z,99.99
2016-07-29T00:28:43.158Z,99.99
2016-07-29T00:29:43.872Z,99.99
2016-07-29T00:30:43.841Z,99.99
2016-07-29T00:31:43.841Z,99.99
2016-07-29T00:32:43.824Z,99.99
2016-07-29T00:33:43.812Z,99.99
2016-07-29T00:34:43.800Z,99.99
2016-07-29T00:35:43.796Z,99.99
2016-07-29T00:36:43.785Z,99.99
2016-07-29T00:37:43.774Z,99.99
2016-07-29T00:38:43.800Z,99.99
2016-07-29T00:39:43.747Z,99.99
2016-07-29T00:40:43.741Z,99.99
2016-07-29T00:41:43.729Z,99.99
2016-07-29T00:42:43.720Z,99.99
2016-07-29T00:43:43.709Z,99.99
2016-07-29T00:44:43.701Z,99.99
2016-07-29T00:45:43.676Z,99.99
2016-07-29T00:46:43.667Z,99.99
2016-07-29T00:47:43.657Z,99.99
2016-07-29T00:48:42.923Z,99.99
2016-07-29T00:49:43.629Z,99.99
2016-07-29T00:50:42.900Z,99.99
2016-07-29T00:51:43.604Z,99.99
2016-07-29T00:52:43.597Z,99.99
2016-07-29T00:53:42.862Z,99.99
2016-07-29T00:54:43.578Z,99.99
2016-07-29T00:55:43.565Z,99.99
2016-07-29T00:56:43.560Z,99.99
2016-07-29T00:57:42.818Z,99.99
2016-07-29T00:58:43.551Z,99.99
2016-07-29T00:59:43.516Z,99.99
2016-07-29T01:00:43.569Z,99.99
2016-07-29T01:01:42.778Z,99.99
2016-07-29T01:02:43.490Z,99.99
2016-07-29T01:03:43.475Z,99.99
2016-07-29T01:04:43.460Z,99.99
2016-07-29T01:05:42.722Z,99.99
2016-07-29T01:06:43.428Z,99.99
2016-07-29T01:07:43.419Z,99.99
2016-07-29T01:08:43.401Z,99.99
2016-07-29T01:09:42.683Z,99.99
2016-07-29T01:10:43.384Z,99.99
2016-07-29T01:11:43.379Z,99.99
2016-07-29T01:12:43.370Z,99.99
2016-07-29T01:13:42.637Z,99.99
2016-07-29T01:14:43.336Z,99.99
2016-07-29T01:15:43.605Z,99.99
2016-07-29T01:16:43.316Z,99.99
2016-07-29T01:17:43.304Z,99.99
2016-07-29T01:18:42.566Z,99.99
2016-07-29T01:19:43.272Z,99.99
2016-07-29T01:20:43.266Z,99.99
2016-07-29T01:21:43.261Z,99.99
2016-07-29T01:22:42.522Z,99.99
2016-07-29T01:23:43.237Z,99.99
2016-07-29T01:24:43.250Z,99.99
2016-07-29T01:25:43.206Z,99.99
2016-07-29T01:26:43.211Z,99.99
2016-07-29T01:27:43.176Z,99.99
2016-07-29T01:28:43.173Z,99.99
2016-07-29T01:29:43.158Z,99.99
2016-07-29T01:30:43.150Z,99.99
2016-07-29T01:31:43.138Z,99.99
2016-07-29T01:32:43.119Z,99.99
2016-07-29T01:33:43.117Z,99.99
2016-07-29T01:34:43.103Z,99.99
2016-07-29T01:35:43.148Z,99.99
2016-07-29T01:36:43.067Z,99.99
2016-07-29T01:37:43.139Z,99.99
2016-07-29T01:38:43.054Z,99.99
2016-07-29T01:39:43.090Z,99.99
2016-07-29T01:40:42.308Z,99.99
2016-07-29T01:41:43.018Z,99.99
2016-07-29T01:42:42.302Z,99.99
2016-07-29T01:43:43.015Z,99.99
2016-07-29T01:44:42.256Z,99.99
2016-07-29T01:45:43.011Z,99.99
2016-07-29T01:46:42.959Z,99.99
2016-07-29T01:47:42.944Z,99.99
2016-07-29T01:48:42.216Z,99.99
2016-07-29T01:49:42.931Z,99.99
2016-07-29T01:50:42.912Z,99.99
2016-07-29T01:51:42.896Z,99.99
2016-07-29T01:52:42.883Z,99.99
2016-07-29T01:53:42.152Z,99.99
2016-07-29T01:54:42.146Z,99.99
2016-07-29T01:55:42.840Z,99.99
2016-07-29T01:56:42.841Z,99.99
2016-07-29T01:57:42.818Z,99.99
2016-07-29T01:58:42.827Z,99.99
2016-07-29T01:59:42.797Z,99.99
2016-07-29T02:00:42.786Z,99.99
2016-07-29T02:01:42.786Z,99.99
2016-07-29T02:02:42.765Z,99.99
2016-07-29T02:03:42.033Z,99.99
2016-07-29T02:04:42.740Z,99.99
2016-07-29T02:05:42.725Z,99.99
2016-07-29T02:06:42.709Z,99.99
2016-07-29T02:07:42.729Z,99.99
2016-07-29T02:08:42.699Z,99.99
2016-07-29T02:09:42.675Z,99.99
2016-07-29T02:10:42.671Z,99.99
2016-07-29T02:11:42.679Z,99.99
2016-07-29T02:12:42.647Z,99.99
2016-07-29T02:13:42.640Z,99.99
2016-07-29T02:14:42.620Z,99.99
2016-07-29T02:15:42.613Z,99.99
2016-07-29T02:16:41.887Z,99.99
2016-07-29T02:17:42.592Z,99.99
2016-07-29T02:18:42.576Z,99.99
2016-07-29T02:19:42.557Z,99.99
2016-07-29T02:20:42.557Z,99.99
2016-07-29T02:21:42.535Z,99.99
2016-07-29T02:22:42.528Z,99.99
2016-07-29T02:23:42.519Z,99.99
2016-07-29T02:24:42.518Z,99.99
2016-07-29T02:25:42.485Z,99.99
2016-07-29T02:26:41.763Z,99.99
2016-07-29T02:27:42.459Z,99.99
2016-07-29T02:28:42.475Z,99.99
2016-07-29T02:29:41.729Z,99.99
2016-07-29T02:30:41.728Z,99.99
2016-07-29T02:31:42.417Z,99.99
2016-07-29T02:32:42.405Z,99.99
2016-07-29T02:33:42.396Z,99.99
2016-07-29T02:34:42.437Z,99.99
2016-07-29T02:35:42.365Z,99.99
2016-07-29T02:36:42.364Z,99.99
2016-07-29T02:37:42.337Z,99.99
2016-07-29T02:38:42.331Z,99.99
2016-07-29T02:39:42.316Z,99.99
2016-07-29T02:40:42.350Z,99.99
2016-07-29T02:41:42.296Z,99.99
2016-07-29T02:42:42.312Z,99.99
2016-07-29T02:43:41.547Z,99.99
2016-07-29T02:44:42.265Z,99.99
2016-07-29T02:45:42.266Z,99.99
2016-07-29T02:46:42.240Z,99.99
2016-07-29T02:47:42.226Z,99.99
2016-07-29T02:48:42.217Z,99.99
2016-07-29T02:49:42.196Z,99.99
2016-07-29T02:50:42.187Z,99.99
2016-07-29T02:51:42.178Z,99.99
2016-07-29T02:52:41.461Z,99.99
2016-07-29T02:53:41.441Z,99.99
2016-07-29T02:54:41.424Z,99.99
2016-07-29T02:55:42.124Z,99.99
2016-07-29T02:56:42.171Z,99.99
2016-07-29T02:57:42.108Z,99.99
2016-07-29T02:58:41.379Z,99.99
2016-07-29T02:59:42.077Z,99.99
2016-07-29T03:00:42.069Z,99.99
2016-07-29T03:01:41.335Z,99.99
2016-07-29T03:02:42.038Z,99.99
2016-07-29T03:03:42.037Z,99.99
2016-07-29T03:04:42.012Z,99.99
2016-07-29T03:05:42.006Z,99.99
2016-07-29T03:06:42.061Z,99.99
2016-07-29T03:07:41.268Z,99.99
2016-07-29T03:08:42.012Z,99.99
2016-07-29T03:09:41.959Z,99.99
2016-07-29T03:10:41.951Z,99.99
2016-07-29T03:11:41.214Z,99.99
2016-07-29T03:12:41.920Z,99.99
2016-07-29T03:13:41.189Z,99.99
2016-07-29T03:14:41.897Z,99.99
2016-07-29T03:15:41.888Z,99.99
2016-07-29T03:16:41.867Z,99.99
2016-07-29T03:17:41.139Z,99.99
2016-07-29T03:18:41.200Z,99.99
2016-07-29T03:19:41.835Z,99.99
2016-07-29T03:20:41.821Z,99.99
2016-07-29T03:21:41.100Z,99.99
2016-07-29T03:22:41.805Z,99.99
2016-07-29T03:23:41.785Z,99.99
2016-07-29T03:24:41.777Z,99.99
2016-07-29T03:25:41.764Z,99.99
2016-07-29T03:26:41.747Z,99.99
2016-07-29T03:27:41.736Z,99.99
2016-07-29T03:28:41.728Z,99.99
2016-07-29T03:29:41.712Z,99.99
2016-07-29T03:30:41.694Z,99.99
2016-07-29T03:31:41.683Z,99.99
2016-07-29T03:32:41.676Z,99.99
2016-07-29T03:33:41.665Z,99.99
2016-07-29T03:34:41.649Z,99.99
2016-07-29T03:35:41.640Z,99.99
2016-07-29T03:36:40.911Z,99.99
2016-07-29T03:37:41.618Z,99.99
2016-07-29T03:38:41.599Z,99.99
2016-07-29T03:39:41.586Z,99.99
2016-07-29T03:40:41.575Z,99.99
2016-07-29T03:41:41.565Z,99.99
2016-07-29T03:42:41.561Z,99.99
2016-07-29T03:43:41.539Z,99.99
2016-07-29T03:44:41.523Z,99.99
2016-07-29T03:45:41.519Z,99.99
2016-07-29T03:46:41.503Z,99.99
2016-07-29T03:47:40.810Z,99.99
2016-07-29T03:48:41.482Z,99.99
2016-07-29T03:49:41.480Z,99.99
2016-07-29T03:50:41.458Z,99.99
2016-07-29T03:51:41.440Z,99.99
2016-07-29T03:52:41.429Z,99.99
2016-07-29T03:53:41.427Z,99.99
2016-07-29T03:54:41.399Z,99.99
2016-07-29T03:55:41.400Z,99.99
2016-07-29T03:56:41.380Z,99.99
2016-07-29T03:57:40.646Z,99.99
2016-07-29T03:58:41.352Z,99.99
2016-07-29T03:59:41.336Z,99.99
2016-07-29T04:00:41.331Z,99.99
2016-07-29T04:01:40.593Z,99.99
2016-07-29T04:03:41.292Z,99.99
2016-07-29T04:04:41.276Z,99.99
2016-07-29T04:05:41.267Z,99.99
2016-07-29T04:06:41.246Z,99.99
2016-07-29T04:07:41.241Z,99.99
2016-07-29T04:08:41.225Z,99.99
2016-07-29T04:09:41.215Z,99.99
2016-07-29T04:10:40.483Z,99.99
2016-07-29T04:11:41.185Z,99.99
2016-07-29T04:12:41.177Z,99.99
2016-07-29T04:13:41.154Z,99.99
2016-07-29T04:14:41.145Z,99.99
2016-07-29T04:15:41.138Z,99.99
2016-07-29T04:16:41.122Z,99.99
2016-07-29T04:17:41.120Z,99.99
2016-07-29T04:18:41.097Z,99.99
2016-07-29T04:19:41.078Z,99.99
2016-07-29T04:20:41.075Z,99.99
2016-07-29T04:21:40.351Z,99.99
2016-07-29T04:22:41.047Z,99.99
2016-07-29T04:23:41.057Z,99.99
2016-07-29T04:24:41.027Z,99.99
2016-07-29T04:25:41.016Z,99.99
2016-07-29T04:26:40.990Z,99.99
2016-07-29T04:27:40.270Z,99.99
2016-07-29T04:28:40.974Z,99.99
2016-07-29T04:29:40.962Z,99.99
2016-07-29T04:30:40.952Z,99.99
2016-07-29T04:31:40.932Z,99.99
2016-07-29T04:32:40.928Z,99.99
2016-07-29T04:33:40.910Z,99.99
2016-07-29T04:34:40.912Z,99.99
2016-07-29T04:35:40.892Z,99.99
2016-07-29T04:36:40.155Z,99.99
2016-07-29T04:37:40.856Z,99.99
2016-07-29T04:38:40.851Z,99.99
2016-07-29T04:39:40.838Z,99.99
2016-07-29T04:40:40.820Z,99.99
2016-07-29T04:41:40.106Z,99.99
2016-07-29T04:42:40.810Z,99.99
2016-07-29T04:43:40.780Z,99.99
2016-07-29T04:44:40.760Z,99.99
2016-07-29T04:45:40.760Z,99.99
2016-07-29T04:46:40.742Z,99.99
2016-07-29T04:47:40.732Z,99.99
2016-07-29T04:48:40.742Z,99.99
2016-07-29T04:49:40.711Z,99.99
2016-07-29T04:50:40.754Z,99.99
2016-07-29T04:51:40.672Z,99.99
2016-07-29T04:52:39.953Z,99.99
2016-07-29T04:53:40.650Z,99.99
2016-07-29T04:54:40.671Z,99.99
2016-07-29T04:55:40.620Z,99.99
2016-07-29T04:56:40.615Z,99.99
2016-07-29T04:57:40.599Z,99.99
2016-07-29T04:58:40.616Z,99.99
2016-07-29T04:59:39.857Z,99.99
2016-07-29T05:00:39.864Z,99.99
2016-07-29T05:01:39.834Z,99.99
2016-07-29T05:02:40.574Z,99.99
2016-07-29T05:03:40.529Z,99.99
2016-07-29T05:04:40.524Z,99.99
2016-07-29T05:05:40.508Z,99.99
2016-07-29T05:06:40.484Z,99.99
2016-07-29T05:07:40.471Z,99.99
2016-07-29T05:08:39.735Z,99.99
2016-07-29T05:09:39.738Z,99.99
2016-07-29T05:10:40.483Z,99.99
2016-07-29T05:11:40.417Z,99.99
2016-07-29T05:12:40.461Z,99.99
2016-07-29T05:13:40.390Z,99.99
2016-07-29T05:14:40.378Z,99.99
2016-07-29T05:15:39.667Z,99.99
2016-07-29T05:16:40.350Z,99.99
2016-07-29T05:17:40.330Z,99.99
2016-07-29T05:18:40.331Z,99.99
2016-07-29T05:19:40.325Z,99.99
2016-07-29T05:20:40.296Z,99.99
2016-07-29T05:21:40.281Z,99.99
2016-07-29T05:22:40.267Z,99.99
2016-07-29T05:23:40.254Z,99.99
2016-07-29T05:24:40.246Z,99.99
2016-07-29T05:25:40.241Z,99.99
2016-07-29T05:26:40.231Z,99.99
2016-07-29T05:27:40.207Z,99.99
2016-07-29T05:28:39.476Z,99.99
2016-07-29T05:29:40.185Z,99.99
2016-07-29T05:30:40.172Z,99.99
2016-07-29T05:31:40.159Z,99.99
2016-07-29T05:32:40.161Z,99.99
2016-07-29T05:33:40.127Z,99.99
2016-07-29T05:34:39.398Z,99.99
2016-07-29T05:35:40.098Z,99.99
2016-07-29T05:36:40.098Z,99.99
2016-07-29T05:37:40.079Z,99.99
2016-07-29T05:38:40.080Z,99.99
2016-07-29T05:39:40.050Z,99.99
2016-07-29T05:40:39.328Z,99.99
2016-07-29T05:41:40.020Z,99.99
2016-07-29T05:42:40.012Z,99.99
2016-07-29T05:43:40.004Z,99.99
2016-07-29T05:44:39.986Z,99.99
2016-07-29T05:45:39.980Z,99.99
2016-07-29T05:46:39.969Z,99.99
2016-07-29T05:47:39.959Z,99.99
2016-07-29T05:48:39.938Z,99.99
2016-07-29T05:49:39.925Z,99.99
2016-07-29T05:50:39.193Z,99.99
2016-07-29T05:51:39.906Z,99.99
2016-07-29T05:52:39.901Z,99.99
2016-07-29T05:53:39.868Z,99.99
2016-07-29T05:54:39.870Z,99.99
2016-07-29T05:55:39.138Z,99.99
2016-07-29T05:56:39.836Z,99.99
2016-07-29T05:57:39.830Z,99.99
2016-07-29T05:58:39.098Z,99.99
2016-07-29T05:59:39.806Z,99.99
2016-07-29T06:00:39.788Z,99.99
2016-07-29T06:01:39.770Z,99.99
2016-07-29T06:02:39.760Z,99.99
2016-07-29T06:03:39.738Z,99.99
2016-07-29T06:04:39.740Z,99.99
2016-07-29T06:05:39.731Z,99.99
2016-07-29T06:06:39.717Z,99.99
2016-07-29T06:07:39.698Z,99.99
2016-07-29T06:08:39.687Z,99.99
2016-07-29T06:09:39.677Z,99.99
2016-07-29T06:10:39.664Z,99.99
2016-07-29T06:11:39.650Z,99.99
2016-07-29T06:12:39.636Z,99.99
2016-07-29T06:13:39.624Z,99.99
2016-07-29T06:14:39.609Z,99.99
2016-07-29T06:15:39.608Z,99.99
2016-07-29T06:16:39.583Z,99.99
2016-07-29T06:17:38.861Z,99.99
2016-07-29T06:18:38.877Z,99.99
2016-07-29T06:19:39.552Z,99.99
2016-07-29T06:20:38.816Z,99.99
2016-07-29T06:21:39.578Z,99.99
2016-07-29T06:22:38.810Z,99.99
2016-07-29T06:23:39.506Z,99.99
2016-07-29T06:24:39.490Z,99.99
2016-07-29T06:25:39.481Z,99.99
2016-07-29T06:26:38.747Z,99.99
2016-07-29T06:27:39.450Z,99.99
2016-07-29T06:28:39.435Z,99.99
2016-07-29T06:29:39.422Z,99.99
2016-07-29T06:30:39.406Z,99.99
2016-07-29T06:31:39.390Z,99.99
2016-07-29T06:32:38.669Z,99.99
2016-07-29T06:34:38.648Z,99.99
2016-07-29T06:35:39.346Z,99.99
2016-07-29T06:36:39.335Z,99.99
2016-07-29T06:37:39.337Z,99.99
2016-07-29T06:38:38.611Z,99.99
2016-07-29T06:39:39.309Z,99.99
2016-07-29T06:40:39.283Z,99.99
2016-07-29T06:41:38.562Z,99.99
2016-07-29T06:42:39.262Z,99.99
2016-07-29T06:43:39.248Z,99.99
2016-07-29T06:44:38.516Z,99.99
2016-07-29T06:45:39.235Z,99.99
2016-07-29T06:46:39.217Z,99.99
2016-07-29T06:47:38.490Z,99.99
2016-07-29T06:48:39.185Z,99.99
2016-07-29T06:49:38.718Z,99.99
2016-07-29T06:50:39.164Z,99.99
2016-07-29T06:51:39.141Z,99.99
2016-07-29T06:52:39.139Z,99.99
2016-07-29T06:53:39.144Z,99.99
2016-07-29T06:54:38.403Z,99.99
2016-07-29T06:55:39.300Z,99.99
2016-07-29T06:56:38.381Z,99.99
2016-07-29T06:57:39.094Z,99.99
2016-07-29T06:58:39.057Z,99.99
2016-07-29T06:59:38.331Z,99.99
2016-07-29T07:00:39.111Z,99.99
2016-07-29T07:01:39.025Z,99.99
2016-07-29T07:02:39.011Z,99.99
2016-07-29T07:03:39.003Z,99.99
2016-07-29T07:04:38.277Z,99.99
2016-07-29T07:05:38.974Z,99.99
2016-07-29T07:06:38.971Z,99.99
2016-07-29T07:07:38.955Z,99.99
2016-07-29T07:08:38.951Z,99.99
2016-07-29T07:09:38.211Z,99.99
2016-07-29T07:10:38.908Z,99.99
2016-07-29T07:11:38.921Z,99.99
2016-07-29T07:12:38.182Z,99.99
2016-07-29T07:13:38.875Z,99.99
2016-07-29T07:14:38.859Z,99.99
2016-07-29T07:15:38.862Z,99.99
2016-07-29T07:16:38.874Z,99.99
2016-07-29T07:17:38.821Z,99.99
2016-07-29T07:18:38.177Z,99.99
2016-07-29T07:19:38.795Z,99.99
2016-07-29T07:20:38.782Z,99.99
2016-07-29T07:21:38.778Z,99.99
2016-07-29T07:22:38.777Z,99.99
2016-07-29T07:23:38.755Z,99.99
2016-07-29T07:24:38.748Z,99.99
2016-07-29T07:25:38.734Z,99.99
2016-07-29T07:26:38.776Z,99.99
2016-07-29T07:27:37.992Z,99.99
2016-07-29T07:28:38.739Z,99.99
2016-07-29T07:29:38.688Z,99.99
2016-07-29T07:30:38.669Z,99.99
2016-07-29T07:31:38.651Z,99.99
2016-07-29T07:32:38.647Z,99.99
2016-07-29T07:33:38.639Z,99.99
2016-07-29T07:34:37.909Z,99.99
2016-07-29T07:35:38.615Z,99.99
2016-07-29T07:36:37.884Z,99.99
2016-07-29T07:37:38.593Z,99.99
2016-07-29T07:38:38.591Z,99.99
2016-07-29T07:39:38.569Z,99.99
2016-07-29T07:40:38.548Z,99.99
2016-07-29T07:41:38.541Z,99.99
2016-07-29T07:42:38.536Z,99.99
2016-07-29T07:43:38.556Z,99.99
2016-07-29T07:44:38.506Z,99.99
2016-07-29T07:45:37.788Z,99.99
2016-07-29T07:46:37.763Z,99.99
2016-07-29T07:47:38.478Z,99.99
2016-07-29T07:48:38.463Z,99.99
2016-07-29T07:49:38.452Z,99.99
2016-07-29T07:50:37.728Z,99.99
2016-07-29T07:51:37.712Z,99.99
2016-07-29T07:52:37.719Z,99.99
2016-07-29T07:53:37.790Z,99.99
2016-07-29T07:54:38.414Z,99.99
2016-07-29T07:55:38.386Z,99.99
2016-07-29T07:56:38.390Z,99.99
2016-07-29T07:57:38.358Z,99.99
2016-07-29T07:58:38.350Z,99.99
2016-07-29T07:59:37.637Z,99.99
2016-07-29T08:00:38.351Z,99.99
2016-07-29T08:01:37.598Z,99.99
2016-07-29T08:02:38.306Z,99.99
2016-07-29T08:04:38.284Z,99.99
2016-07-29T08:05:37.568Z,99.99
2016-07-29T08:06:38.261Z,99.99
2016-07-29T08:07:38.246Z,99.99
2016-07-29T08:08:38.245Z,99.99
2016-07-29T08:09:38.229Z,99.99
2016-07-29T08:10:37.494Z,99.99
2016-07-29T08:11:38.198Z,99.99
2016-07-29T08:12:37.477Z,99.99
2016-07-29T08:13:37.461Z,99.99
2016-07-29T08:14:38.165Z,99.99
2016-07-29T08:15:38.157Z,99.99
2016-07-29T08:16:38.151Z,99.99
2016-07-29T08:17:38.132Z,99.99
2016-07-29T08:19:38.112Z,99.99
2016-07-29T08:20:38.093Z,99.99
2016-07-29T08:21:37.377Z,99.99
2016-07-29T08:22:38.076Z,99.99
2016-07-29T08:23:38.070Z,99.99
2016-07-29T08:24:37.337Z,99.99
2016-07-29T08:25:38.041Z,99.99
2016-07-29T08:26:38.036Z,99.99
2016-07-29T08:27:37.299Z,99.99
2016-07-29T08:28:37.295Z,99.99
2016-07-29T08:29:37.996Z,99.99
2016-07-29T08:30:37.979Z,99.99
2016-07-29T08:31:37.978Z,99.99
2016-07-29T08:32:37.243Z,99.99
2016-07-29T08:34:37.955Z,99.99
2016-07-29T08:35:37.928Z,99.99
2016-07-29T08:36:37.200Z,99.99
2016-07-29T08:37:37.186Z,99.99
2016-07-29T08:38:37.177Z,99.99
2016-07-29T08:39:37.918Z,99.99
2016-07-29T08:40:37.875Z,99.99
2016-07-29T08:41:37.868Z,99.99
2016-07-29T08:42:37.859Z,99.99
2016-07-29T08:43:37.850Z,99.99
2016-07-29T08:44:37.103Z,99.99
2016-07-29T08:45:37.816Z,99.99
2016-07-29T08:46:37.810Z,99.99
2016-07-29T08:47:37.792Z,99.99
2016-07-29T08:49:37.069Z,99.99
2016-07-29T08:50:37.761Z,99.99
2016-07-29T08:51:37.791Z,99.99
2016-07-29T08:52:37.022Z,99.99
2016-07-29T08:53:37.014Z,99.31
2016-07-29T08:54:37.724Z,98.92
2016-07-29T08:55:36.989Z,99.4
2016-07-29T08:56:36.987Z,98.87
2016-07-29T08:57:37.700Z,96.89
2016-07-29T08:58:37.679Z,95.35
2016-07-29T08:59:37.664Z,95.25
2016-07-29T09:00:36.948Z,95.64
2016-07-29T09:01:37.653Z,95.59
2016-07-29T09:02:37.655Z,95.25
2016-07-29T09:03:37.652Z,93.17
2016-07-29T09:04:37.635Z,90.31
2016-07-29T09:05:37.628Z,89.83
2016-07-29T09:06:37.605Z,90.12
2016-07-29T09:07:37.596Z,88.95
2016-07-29T09:08:37.595Z,89.83
2016-07-29T09:09:37.585Z,89.97
2016-07-29T09:10:37.574Z,89.73
2016-07-29T09:11:36.854Z,88.81
2016-07-29T09:13:37.551Z,90.75
2016-07-29T09:14:37.540Z,91.96
2016-07-29T09:15:36.818Z,90.51
2016-07-29T09:16:37.542Z,89.78
2016-07-29T09:17:36.807Z,90.41
2016-07-29T09:18:36.796Z,89.64
2016-07-29T09:19:37.506Z,89.06
2016-07-29T09:20:37.517Z,87.27
2016-07-29T09:21:37.491Z,84.64
2016-07-29T09:22:37.485Z,84.25
2016-07-29T09:23:36.756Z,84.55
2016-07-29T09:24:37.473Z,85.96
2016-07-29T09:25:37.472Z,86.24
2016-07-29T09:26:37.458Z,86.73
2016-07-29T09:27:37.446Z,87.07
2016-07-29T09:28:37.457Z,87.75
2016-07-29T09:29:37.442Z,87.95
2016-07-29T09:30:36.706Z,89.06
2016-07-29T09:31:37.416Z,89.06
2016-07-29T09:32:37.419Z,88.77
2016-07-29T09:33:37.403Z,88.13
2016-07-29T09:34:37.397Z,87.85
2016-07-29T09:35:36.676Z,87.95
2016-07-29T09:36:37.383Z,87.36
2016-07-29T09:37:36.660Z,87.71
2016-07-29T09:38:36.648Z,87.27
2016-07-29T09:39:37.353Z,87.46
2016-07-29T09:40:37.341Z,87.17
2016-07-29T09:41:37.369Z,86.69
2016-07-29T09:42:37.333Z,86.98
2016-07-29T09:43:37.328Z,87.61
2016-07-29T09:44:37.325Z,87.71
2016-07-29T09:45:37.308Z,87.95
2016-07-29T09:47:37.286Z,88.97
2016-07-29T09:48:36.568Z,88.78
2016-07-29T09:49:37.269Z,89.45
2016-07-29T09:50:36.560Z,89.01
2016-07-29T09:51:37.256Z,90.08
2016-07-29T09:52:37.262Z,90.23
2016-07-29T09:53:37.227Z,90.52
2016-07-29T09:54:36.529Z,90.13
2016-07-29T09:55:37.218Z,91
2016-07-29T09:56:36.483Z,91.29
2016-07-29T09:57:37.205Z,92.79
2016-07-29T09:58:37.182Z,92.41
2016-07-29T09:59:37.247Z,92.89
2016-07-29T10:00:37.176Z,93.18
2016-07-29T10:01:36.484Z,93.37
2016-07-29T10:02:36.439Z,93.27
2016-07-29T10:03:36.467Z,93.56
2016-07-29T10:04:37.138Z,93.47
2016-07-29T10:05:36.415Z,93.66
2016-07-29T10:06:36.397Z,93.08
2016-07-29T10:07:37.114Z,94.04
2016-07-29T10:08:36.375Z,94.29
2016-07-29T10:09:37.073Z,94.87
2016-07-29T10:10:37.065Z,94.53
2016-07-29T10:11:36.349Z,94.43
2016-07-29T10:12:37.050Z,94.04
2016-07-29T10:13:37.044Z,93.18
2016-07-29T10:14:37.036Z,92.89
2016-07-29T10:15:37.038Z,92.74
2016-07-29T10:16:37.013Z,91.49
2016-07-29T10:17:37.003Z,91.87
2016-07-29T10:18:36.998Z,91.97
2016-07-29T10:19:36.971Z,93.32
2016-07-29T10:20:36.979Z,92.07
2016-07-29T10:21:36.330Z,92.07
2016-07-29T10:22:36.960Z,92.25
2016-07-29T10:23:36.946Z,91.53
2016-07-29T10:24:36.940Z,90.85
2016-07-29T10:25:36.924Z,90.56
2016-07-29T10:26:36.917Z,90.37
2016-07-29T10:27:36.920Z,90.66
2016-07-29T10:28:36.900Z,90.41
2016-07-29T10:29:36.892Z,90.75
2016-07-29T10:30:36.876Z,90.66
2016-07-29T10:31:36.891Z,91.49
2016-07-29T10:32:36.863Z,91.39
2016-07-29T10:33:36.844Z,91.24
2016-07-29T10:34:36.838Z,91.24
2016-07-29T10:35:36.121Z,91.24
2016-07-29T10:36:36.137Z,91.67
2016-07-29T10:37:36.813Z,92.65
2016-07-29T10:38:36.794Z,92.79
2016-07-29T10:39:36.073Z,92.89
2016-07-29T10:40:36.066Z,92.41
2016-07-29T10:41:36.765Z,91.97
2016-07-29T10:42:36.867Z,91.97
2016-07-29T10:43:36.034Z,92.07
2016-07-29T10:44:36.746Z,92.74
2016-07-29T10:45:36.739Z,91.33
2016-07-29T10:46:36.070Z,91.72
2016-07-29T10:47:36.717Z,91.33
2016-07-29T10:48:36.760Z,91.82
2016-07-29T10:49:36.692Z,91.53
2016-07-29T10:50:36.760Z,91.39
2016-07-29T10:51:36.674Z,92.3
2016-07-29T10:52:36.016Z,93.51
2016-07-29T10:53:35.935Z,94.09
2016-07-29T10:54:36.642Z,95.35
2016-07-29T10:55:36.639Z,96.31
2016-07-29T10:56:36.638Z,95.5
2016-07-29T10:57:35.899Z,95.68
2016-07-29T10:58:36.661Z,95.88
2016-07-29T10:59:35.886Z,95.11
2016-07-29T11:00:36.641Z,94.34
2016-07-29T11:01:36.580Z,94.34
2016-07-29T11:02:36.564Z,95.5
2016-07-29T11:03:35.838Z,96.46
2016-07-29T11:04:35.841Z,99.79
2016-07-29T11:05:36.541Z,99.99
2016-07-29T11:06:36.527Z,99.99
2016-07-29T11:07:36.512Z,99.99
2016-07-29T11:08:36.507Z,99.99
2016-07-29T11:09:36.496Z,99.99
2016-07-29T11:10:36.499Z,99.99
2016-07-29T11:11:36.475Z,99.99
2016-07-29T11:12:36.529Z,99.99
2016-07-29T11:13:36.459Z,99.99
2016-07-29T11:14:36.445Z,99.99
2016-07-29T11:15:35.722Z,99.99
2016-07-29T11:16:36.442Z,99.99
2016-07-29T11:17:36.422Z,99.99
2016-07-29T11:18:36.403Z,99.99
2016-07-29T11:19:36.393Z,99.99
2016-07-29T11:20:35.676Z,99.99
2016-07-29T11:21:35.669Z,99.99
2016-07-29T11:22:36.362Z,99.99
2016-07-29T11:23:36.356Z,99.99
2016-07-29T11:24:36.347Z,99.99
2016-07-29T11:25:36.330Z,99.99
2016-07-29T11:26:36.331Z,99.99
2016-07-29T11:27:36.319Z,99.99
2016-07-29T11:28:36.300Z,99.99
2016-07-29T11:29:36.298Z,99.99
2016-07-29T11:30:36.284Z,99.99
2016-07-29T11:31:36.271Z,99.55
2016-07-29T11:32:36.264Z,99.65
2016-07-29T11:33:36.261Z,99.02
2016-07-29T11:34:35.529Z,99.31
2016-07-29T11:35:36.247Z,97.67
2016-07-29T11:36:36.231Z,97.96
2016-07-29T11:37:36.228Z,97.77
2016-07-29T11:38:36.210Z,97.86
2016-07-29T11:39:36.196Z,97.86
2016-07-29T11:40:36.195Z,97.28
2016-07-29T11:41:36.193Z,97.57
2016-07-29T11:42:35.445Z,98.63
2016-07-29T11:43:36.159Z,99.07
2016-07-29T11:44:35.444Z,99.99
2016-07-29T11:45:36.169Z,99.99
2016-07-29T11:46:36.129Z,99.55
2016-07-29T11:47:36.128Z,99.84
2016-07-29T11:48:36.114Z,99.99
2016-07-29T11:49:36.107Z,99.07
2016-07-29T11:50:36.088Z,98.88
2016-07-29T11:51:35.398Z,99.99
2016-07-29T11:52:36.070Z,99.99
2016-07-29T11:53:35.340Z,99.55
2016-07-29T11:54:36.061Z,99.84
2016-07-29T11:55:35.332Z,99.99
2016-07-29T11:56:35.323Z,99.99
2016-07-29T11:57:36.019Z,99.99
2016-07-29T11:58:36.013Z,99.99
2016-07-29T11:59:36.001Z,99.99
2016-07-29T12:00:35.985Z,99.99
2016-07-29T12:01:35.975Z,99.99
2016-07-29T12:02:35.251Z,99.99
2016-07-29T12:03:36.022Z,99.99
2016-07-29T12:04:35.946Z,99.99
2016-07-29T12:05:35.219Z,99.99
2016-07-29T12:06:35.920Z,99.99
2016-07-29T12:07:35.990Z,99.99
2016-07-29T12:08:35.195Z,99.99
2016-07-29T12:09:35.897Z,99.99
2016-07-29T12:10:35.886Z,99.99
2016-07-29T12:11:35.903Z,99.99
2016-07-29T12:12:35.864Z,99.99
2016-07-29T12:13:35.864Z,99.99
2016-07-29T12:14:35.843Z,99.99
2016-07-29T12:15:35.841Z,99.11
2016-07-29T12:16:35.831Z,98.39
2016-07-29T12:17:35.821Z,97.19
2016-07-29T12:18:35.797Z,97.33
2016-07-29T12:19:35.797Z,95.25
2016-07-29T12:20:35.068Z,94.67
2016-07-29T12:21:35.772Z,94.96
2016-07-29T12:22:35.061Z,94.09
2016-07-29T12:23:35.760Z,94.96
2016-07-29T12:24:35.738Z,94.57
2016-07-29T12:25:35.741Z,93.46
2016-07-29T12:26:35.718Z,93.12
2016-07-29T12:27:35.719Z,94.57
2016-07-29T12:28:34.989Z,94.86
2016-07-29T12:29:34.981Z,96.41
2016-07-29T12:30:35.684Z,95.44
2016-07-29T12:31:35.678Z,96.02
2016-07-29T12:32:35.670Z,96.41
2016-07-29T12:33:34.942Z,96.75
2016-07-29T12:34:34.959Z,96.36
2016-07-29T12:35:35.643Z,95.98
2016-07-29T12:36:35.641Z,96.94
2016-07-29T12:37:35.619Z,97.57
2016-07-29T12:38:35.701Z,97.38
2016-07-29T12:39:35.603Z,98.25
2016-07-29T12:40:35.603Z,99.02
2016-07-29T12:41:35.584Z,99.02
2016-07-29T12:42:35.571Z,99.79
2016-07-29T12:43:35.570Z,99.99
2016-07-29T12:44:35.549Z,99.99
2016-07-29T12:45:35.559Z,99.79
2016-07-29T12:46:35.539Z,99.84
2016-07-29T12:47:35.518Z,99.99
2016-07-29T12:48:35.517Z,99.99
2016-07-29T12:50:35.499Z,99.99
2016-07-29T12:51:35.482Z,99.99
2016-07-29T12:52:35.479Z,99.99
2016-07-29T12:53:35.468Z,99.99
2016-07-29T12:54:35.462Z,99.99
2016-07-29T12:55:34.751Z,99.99
2016-07-29T12:56:34.722Z,99.99
2016-07-29T12:57:35.433Z,99.99
2016-07-29T12:58:35.422Z,99.99
2016-07-29T12:59:35.403Z,99.99
2016-07-29T13:00:35.399Z,99.75
2016-07-29T13:01:35.391Z,96.98
2016-07-29T13:02:34.667Z,96.6